Time;durP1;ratioP1;P1;durP2;ratioP2;P2;SDS_P1;SDS_P2;PMS_P1;PMS_P2;Temp;Humidity;BMP_temperature;BMP_pressure;BME280_temperature;BME280_humidity;BME280_pressure;Samples;Min_cycle;Max_cycle;Signal;HPM_P1;HPM_P2
2023/03/23 00:01:55;;;;;;;14.45;6.55;;;;;;;11.12;98.13;100200.81;4899942;29;20495;-94
2023/03/23 00:04:26;;;;;;;16.27;7.20;;;;;;;11.13;97.88;100213.00;4883629;29;20036;-93
2023/03/23 00:06:52;;;;;;;14.98;7.45;;;;;;;11.14;97.72;100217.38;4883036;29;20024;-94
2023/03/23 00:09:40;;;;;;;13.13;6.75;;;;;;;11.13;98.02;100197.34;4879807;29;20414;-94
2023/03/23 00:12:06;;;;;;;16.60;6.72;;;;;;;11.16;97.79;100194.78;4903156;29;20052;-93
2023/03/23 00:14:41;;;;;;;14.38;7.13;;;;;;;11.14;97.77;100189.53;4885850;29;20117;-93
2023/03/23 00:17:09;;;;;;;15.98;6.95;;;;;;;11.14;97.55;100201.72;4884854;29;20031;-94
2023/03/23 00:19:45;;;;;;;14.48;7.20;;;;;;;11.15;97.71;100211.28;4883249;29;20938;-94
2023/03/23 00:22:16;;;;;;;13.75;7.07;;;;;;;11.16;97.70;100212.16;4884944;29;20044;-94
2023/03/23 00:24:50;;;;;;;15.45;7.13;;;;;;;11.19;97.45;100194.81;4885575;29;20049;-94
2023/03/23 00:27:21;;;;;;;17.40;7.50;;;;;;;11.20;97.64;100193.97;4901634;29;20107;-94
2023/03/23 00:29:52;;;;;;;13.48;6.93;;;;;;;11.20;97.29;100196.56;4901632;29;20111;-94
2023/03/23 00:32:27;;;;;;;13.15;6.97;;;;;;;11.21;97.40;100213.97;4885232;29;20084;-94
2023/03/23 00:34:54;;;;;;;15.63;7.30;;;;;;;11.21;97.11;100210.47;4900233;29;20031;-94
2023/03/23 00:37:24;;;;;;;15.32;7.55;;;;;;;11.20;97.54;100207.00;4902157;29;20399;-94
2023/03/23 00:39:57;;;;;;;14.80;7.50;;;;;;;11.20;97.49;100211.34;4883245;29;20103;-94
2023/03/23 00:42:25;;;;;;;15.85;7.32;;;;;;;11.21;97.35;100211.38;4886037;29;20024;-93
2023/03/23 00:44:59;;;;;;;15.98;6.97;;;;;;;11.23;97.46;100211.38;4901718;29;20029;-94
2023/03/23 00:47:25;;;;;;;15.80;7.30;;;;;;;11.21;97.47;100208.75;4884823;29;20059;-94
2023/03/23 00:49:52;;;;;;;14.38;6.85;;;;;;;11.22;97.42;100194.84;4882937;29;20067;-94
2023/03/23 00:52:17;;;;;;;14.88;7.30;;;;;;;11.23;97.79;100190.50;4901629;29;20072;-94
2023/03/23 00:54:42;;;;;;;15.40;7.35;;;;;;;11.24;97.87;100200.06;4902917;29;20033;-94
2023/03/23 00:57:10;;;;;;;14.68;7.63;;;;;;;11.23;98.92;100198.34;4879428;29;20035;-95
2023/03/23 00:59:36;;;;;;;15.93;7.85;;;;;;;11.21;99.40;100195.72;4900748;29;20609;-94
2023/03/23 01:02:02;;;;;;;15.60;7.78;;;;;;;11.18;99.96;100187.88;4901439;29;20036;-93
2023/03/23 01:04:51;;;;;;;13.57;8.05;;;;;;;11.19;99.90;100176.56;4886637;29;20581;-94
2023/03/23 01:07:20;;;;;;;;;;;;;;;11.23;99.72;100167.91;4902651;29;20040;-93
2023/03/23 01:09:53;;;;;;;15.05;7.95;;;;;;;11.19;99.92;100166.13;4885372;29;19955;-93
2023/03/23 01:12:25;;;;;;;16.50;7.85;;;;;;;11.16;100.00;100176.53;4893575;29;20033;-93
2023/03/23 01:14:53;;;;;;;18.02;8.23;;;;;;;11.16;100.00;100162.63;4882844;29;20384;-94
2023/03/23 01:17:22;;;;;;;14.48;7.18;;;;;;;11.14;100.00;100137.41;4893669;29;20029;-94
2023/03/23 01:19:47;;;;;;;15.82;8.00;;;;;;;11.15;99.53;100133.03;4893010;29;20754;-94
2023/03/23 01:22:18;;;;;;;14.93;7.30;;;;;;;11.17;99.49;100135.69;4882094;29;20033;-94
2023/03/23 01:24:46;;;;;;;14.65;7.40;;;;;;;11.17;99.39;100140.91;4893937;29;20051;-94
2023/03/23 01:27:14;;;;;;;16.23;7.97;;;;;;;11.18;99.60;100142.63;4885043;29;20028;-93
2023/03/23 01:29:45;;;;;;;15.75;7.72;;;;;;;11.18;99.38;100130.50;4894189;29;20029;-94
2023/03/23 01:32:10;;;;;;;14.45;7.70;;;;;;;11.21;99.04;100124.41;4883283;29;20068;-93
2023/03/23 01:34:36;;;;;;;15.75;7.57;;;;;;;11.21;99.11;100135.75;4894423;29;20079;-93
2023/03/23 01:37:01;;;;;;;15.55;7.75;;;;;;;11.21;99.26;100135.75;4880373;29;20029;-94
2023/03/23 01:39:45;;;;;;;;;;;;;;;;;;;;;
2023/03/23 01:42:13;;;;;;;14.82;7.25;;;;;;;11.27;98.93;100146.22;4896958;29;20032;-94
2023/03/23 01:44:38;;;;;;;14.50;7.80;;;;;;;11.31;98.14;100137.56;4893624;29;20091;-94
2023/03/23 01:47:04;;;;;;;12.82;7.82;;;;;;;11.34;98.18;100136.72;4885775;29;20036;-94
2023/03/23 01:49:40;;;;;;;16.83;8.18;;;;;;;11.36;97.63;100145.44;4886831;29;20024;-94
2023/03/23 01:52:17;;;;;;;15.23;7.95;;;;;;;11.38;97.97;100148.91;4885594;29;20035;-94
2023/03/23 01:54:57;;;;;;;16.00;7.78;;;;;;;11.39;97.62;100139.38;4893052;29;20036;-94
2023/03/23 01:57:29;;;;;;;14.50;7.15;;;;;;;11.41;97.38;100135.91;4887081;29;20032;-94
2023/03/23 01:59:57;;;;;;;14.75;8.27;;;;;;;11.43;97.79;100128.09;4886661;29;20052;-94
2023/03/23 02:02:26;;;;;;;13.80;7.55;;;;;;;11.44;97.23;100116.78;4886225;29;20179;-93
2023/03/23 02:04:56;;;;;;;16.70;7.97;;;;;;;11.45;97.29;100108.97;4885047;29;20054;-94
2023/03/23 02:07:26;;;;;;;14.20;8.15;;;;;;;11.45;96.72;100098.53;4896035;29;20499;-94
2023/03/23 02:09:54;;;;;;;14.30;7.57;;;;;;;11.47;96.92;100106.38;4885286;29;20041;-94
2023/03/23 02:12:23;;;;;;;13.18;7.65;;;;;;;11.46;96.89;100104.66;4894270;29;20024;-94
2023/03/23 02:14:48;;;;;;;13.15;7.63;;;;;;;11.45;96.64;100097.69;4886737;29;20037;-94
2023/03/23 02:17:39;;;;;;;13.30;7.57;;;;;;;11.44;97.04;100096.81;4885443;29;20047;-94
2023/03/23 02:20:29;;;;;;;16.13;8.15;;;;;;;11.46;96.69;100095.06;4884696;29;20052;-94
2023/03/23 02:23:08;;;;;;;12.77;7.70;;;;;;;11.48;96.58;100087.25;4879050;29;20049;-95
2023/03/23 02:25:58;;;;;;;15.65;7.50;;;;;;;11.48;96.53;100092.47;4881046;29;20047;-95
2023/03/23 02:29:00;;;;;;;15.43;7.78;;;;;;;11.51;96.47;100092.50;4881551;29;20050;-95
2023/03/23 02:32:05;;;;;;;13.38;7.70;;;;;;;11.49;96.41;100100.31;4886219;29;20024;-95
2023/03/23 02:34:52;;;;;;;16.48;8.27;;;;;;;11.47;95.94;100088.13;4883786;29;20044;-95
2023/03/23 02:37:31;;;;;;;13.15;7.07;;;;;;;11.48;96.15;100084.66;4884836;29;20567;-95
2023/03/23 02:40:11;;;;;;;13.63;7.47;;;;;;;11.48;96.41;100082.94;4896383;29;20076;-95
2023/03/23 02:42:42;;;;;;;15.95;7.30;;;;;;;11.46;95.77;100079.44;4887558;29;20037;-94
2023/03/23 02:45:14;;;;;;;14.63;7.88;;;;;;;11.46;95.74;100083.78;4902358;29;20028;-95
2023/03/23 02:47:41;;;;;;;13.95;7.35;;;;;;;11.45;95.74;100077.66;4883280;29;20029;-95
2023/03/23 02:50:14;;;;;;;14.18;7.55;;;;;;;11.49;95.49;100079.44;4884102;29;20403;-93
2023/03/23 02:52:43;;;;;;;13.55;7.50;;;;;;;11.51;95.23;100082.06;4879251;29;20044;-94
2023/03/23 02:55:11;;;;;;;13.47;7.23;;;;;;;11.53;95.23;100089.91;4886107;29;20072;-94
2023/03/23 02:57:37;;;;;;;12.98;7.03;;;;;;;11.55;95.03;100091.66;4884708;29;20036;-94
2023/03/23 03:00:15;;;;;;;14.43;7.50;;;;;;;11.57;95.04;100087.34;4885518;29;20059;-93
2023/03/23 03:02:44;;;;;;;12.35;7.50;;;;;;;11.59;94.64;100088.22;4885624;29;20032;-94
2023/03/23 03:05:50;;;;;;;13.43;7.47;;;;;;;11.61;94.86;100091.69;4883189;29;20742;-94
2023/03/23 03:08:26;;;;;;;12.07;7.05;;;;;;;11.61;94.81;100083.00;4884991;29;20043;-95
2023/03/23 03:11:03;;;;;;;15.65;7.35;;;;;;;11.61;94.69;100076.03;4883073;29;20096;-93
2023/03/23 03:13:47;;;;;;;11.75;7.18;;;;;;;11.63;94.23;100083.91;4884658;29;20108;-94
2023/03/23 03:16:39;;;;;;;13.20;7.18;;;;;;;11.66;94.30;100092.63;4879407;29;20483;-93
2023/03/23 03:19:30;;;;;;;14.20;7.45;;;;;;;11.68;94.35;100095.25;4895681;29;20080;-94
2023/03/23 03:21:58;;;;;;;14.52;7.35;;;;;;;11.69;93.46;100078.72;4890375;29;20048;-93
2023/03/23 03:24:28;;;;;;;13.35;7.05;;;;;;;11.70;93.57;100088.28;4884155;29;20107;-94
2023/03/23 03:26:59;;;;;;;11.18;7.07;;;;;;;11.70;93.82;100098.72;4882159;29;20558;-94
2023/03/23 03:29:30;;;;;;;10.93;6.78;;;;;;;11.70;93.82;100092.63;4885128;29;20036;-94
2023/03/23 03:31:58;;;;;;;14.02;7.30;;;;;;;11.69;93.56;100093.50;4895634;29;20052;-95
2023/03/23 03:34:27;;;;;;;14.00;6.90;;;;;;;11.66;93.04;100084.78;4884604;29;20084;-95
2023/03/23 03:36:58;;;;;;;12.48;6.80;;;;;;;11.70;92.95;100096.09;4882893;29;20020;-95
2023/03/23 03:39:27;;;;;;;10.63;6.68;;;;;;;11.70;92.80;100088.28;4895451;29;20048;-93
2023/03/23 03:41:54;;;;;;;14.50;7.13;;;;;;;11.71;92.50;100090.03;4884591;29;20024;-95
2023/03/23 03:44:20;;;;;;;11.60;6.35;;;;;;;11.70;92.33;100093.50;4886213;29;20036;-94
2023/03/23 03:46:48;;;;;;;11.90;6.32;;;;;;;11.69;91.95;100090.88;4897201;29;20767;-94
2023/03/23 03:49:15;;;;;;;12.45;6.50;;;;;;;11.71;91.51;100097.00;4884578;29;20055;-95
2023/03/23 03:51:58;;;;;;;12.23;6.75;;;;;;;11.72;92.06;100090.94;4883102;29;20500;-95
2023/03/23 03:54:23;;;;;;;12.85;6.82;;;;;;;11.71;91.79;100081.34;4885164;29;20064;-94
2023/03/23 03:56:57;;;;;;;11.48;6.10;;;;;;;11.70;91.71;100087.41;4882369;29;20158;-94
2023/03/23 03:59:26;;;;;;;9.95;5.72;;;;;;;11.67;91.31;100098.69;4885787;29;20047;-93
2023/03/23 04:02:02;;;;;;;10.93;5.55;;;;;;;11.69;90.02;100104.81;4883693;29;20041;-94
2023/03/23 04:04:29;;;;;;;13.13;5.55;;;;;;;11.70;90.52;100098.72;4893812;29;20990;-94
2023/03/23 04:06:58;;;;;;;11.75;5.28;;;;;;;11.71;90.09;100110.06;4881893;29;20087;-94
2023/03/23 04:09:23;;;;;;;12.98;5.50;;;;;;;11.69;90.58;100098.72;4882863;29;20029;-94
2023/03/23 04:11:48;;;;;;;11.38;4.90;;;;;;;11.69;90.00;100106.53;4894488;29;20041;-93
2023/03/23 04:14:14;;;;;;;10.07;4.38;;;;;;;11.70;88.81;100109.16;4883245;29;20495;-92
2023/03/23 04:16:40;;;;;;;11.00;4.78;;;;;;;11.72;89.16;100106.59;4881608;29;20055;-94
2023/03/23 04:19:07;;;;;;;12.90;4.72;;;;;;;11.72;89.18;100106.59;4884653;29;20122;-94
2023/03/23 04:21:33;;;;;;;10.10;3.97;;;;;;;11.70;88.88;100109.16;4881079;29;20020;-93
2023/03/23 04:23:59;;;;;;;17.55;4.43;;;;;;;11.69;89.06;100117.88;4883846;29;20493;-93
2023/03/23 04:26:28;;;;;;;10.48;3.95;;;;;;;11.68;89.37;100113.50;4894429;29;20111;-93
2023/03/23 04:28:54;;;;;;;;;;;;;;;11.69;90.16;100109.16;4881269;29;20028;-93
2023/03/23 04:31:20;;;;;;;8.50;3.47;;;;;;;11.64;89.01;100123.06;4882535;29;19919;-93
2023/03/23 04:33:46;;;;;;;10.45;3.38;;;;;;;11.64;89.08;100135.22;4883080;29;20091;-94
2023/03/23 04:36:15;;;;;;;10.65;3.20;;;;;;;11.62;88.75;100123.91;4882998;29;20058;-93
2023/03/23 04:38:41;;;;;;;11.27;3.33;;;;;;;11.63;89.08;100133.50;4885122;29;20115;-94
2023/03/23 04:41:06;;;;;;;11.00;3.65;;;;;;;11.61;88.73;100133.44;4893441;29;20108;-94
2023/03/23 04:43:32;;;;;;;7.88;3.10;;;;;;;11.63;88.69;100133.50;4884200;29;20123;-93
2023/03/23 04:46:02;;;;;;;10.85;3.17;;;;;;;11.62;88.57;100140.44;4883716;29;20038;-94
2023/03/23 04:48:33;;;;;;;10.60;3.08;;;;;;;11.67;87.12;100130.00;4882196;29;20048;-93
2023/03/23 04:51:03;;;;;;;12.25;3.05;;;;;;;11.68;88.07;100130.91;4883986;29;20032;-93
2023/03/23 04:53:34;;;;;;;10.48;3.30;;;;;;;11.64;87.67;100136.13;4883398;29;20146;-93
2023/03/23 04:56:01;;;;;;;8.30;2.60;;;;;;;11.65;87.67;100131.75;4882835;29;20051;-94
2023/03/23 04:58:27;;;;;;;8.80;2.78;;;;;;;11.65;88.18;100139.59;4881341;29;20124;-93
2023/03/23 05:00:53;;;;;;;10.50;3.10;;;;;;;11.63;88.20;100144.78;4882733;29;20020;-93
2023/03/23 05:03:19;;;;;;;10.90;2.70;;;;;;;11.62;88.34;100142.16;4883804;29;20459;-93
2023/03/23 05:05:51;;;;;;;9.50;2.38;;;;;;;11.62;87.73;100131.72;4883112;29;20155;-93
2023/03/23 05:08:22;;;;;;;10.00;2.67;;;;;;;11.61;88.28;100140.41;4883809;29;20447;-94
2023/03/23 05:10:55;;;;;;;8.93;2.60;;;;;;;11.61;88.20;100141.28;4884483;29;20042;-94
2023/03/23 05:13:31;;;;;;;10.18;2.80;;;;;;;11.60;88.17;100141.28;4895342;29;20087;-95
2023/03/23 05:15:56;;;;;;;7.22;2.47;;;;;;;11.60;88.21;100139.56;4895002;29;20041;-95
2023/03/23 05:18:26;;;;;;;7.70;2.42;;;;;;;11.60;88.00;100147.38;4889071;29;20101;-94
2023/03/23 05:20:52;;;;;;;8.00;2.50;;;;;;;11.60;87.67;100134.34;4887809;29;20032;-94
2023/03/23 05:23:20;;;;;;;8.30;2.25;;;;;;;11.59;87.96;100131.72;4885206;29;20032;-94
2023/03/23 05:26:02;;;;;;;8.63;2.38;;;;;;;11.57;87.78;100131.72;4884387;29;20044;-94
2023/03/23 05:28:31;;;;;;;11.52;2.60;;;;;;;11.56;87.67;100129.09;4888698;29;20127;-95
2023/03/23 05:31:02;;;;;;;10.13;2.70;;;;;;;11.55;88.43;100142.97;4898690;29;20036;-94
2023/03/23 05:33:30;;;;;;;9.95;3.03;;;;;;;11.53;88.42;100156.03;4886105;29;20032;-94
2023/03/23 05:35:55;;;;;;;9.48;2.88;;;;;;;11.53;88.25;100153.41;4898286;29;20028;-95
2023/03/23 05:38:22;;;;;;;12.60;2.80;;;;;;;11.51;88.54;100144.69;4888296;29;20021;-94
2023/03/23 05:40:48;;;;;;;7.88;2.28;;;;;;;11.49;88.47;100134.22;4887119;29;20103;-95
2023/03/23 05:43:14;;;;;;;8.43;2.50;;;;;;;11.46;88.94;100141.16;4886038;29;20083;-95
2023/03/23 05:45:39;;;;;;;10.70;2.67;;;;;;;11.42;89.29;100140.25;4887840;29;20115;-94
2023/03/23 05:48:05;;;;;;;7.18;2.50;;;;;;;11.40;89.55;100146.34;4899757;29;20040;-93
2023/03/23 05:50:33;;;;;;;10.70;3.00;;;;;;;11.37;89.92;100135.84;4884608;29;20032;-95
2023/03/23 05:52:58;;;;;;;8.18;3.03;;;;;;;11.33;89.83;100144.53;4882013;29;20069;-95
2023/03/23 05:55:31;;;;;;;8.15;2.60;;;;;;;11.31;90.08;100140.19;4898304;29;20056;-95
2023/03/23 05:58:02;;;;;;;11.80;3.03;;;;;;;11.29;90.65;100144.47;4887463;29;20052;-94
2023/03/23 06:00:34;;;;;;;11.82;3.20;;;;;;;11.28;91.00;100145.38;4885884;29;20406;-95
2023/03/23 06:03:00;;;;;;;8.43;2.80;;;;;;;11.26;90.86;100149.69;4889800;29;20036;-94
2023/03/23 06:05:26;;;;;;;9.23;2.90;;;;;;;11.24;91.06;100148.81;4887611;29;20794;-95
2023/03/23 06:07:54;;;;;;;12.57;3.00;;;;;;;11.24;90.86;100137.47;4897143;29;20028;-94
2023/03/23 06:10:23;;;;;;;8.50;2.80;;;;;;;11.25;91.29;100136.63;4883655;29;20048;-94
2023/03/23 06:12:50;;;;;;;10.27;2.87;;;;;;;11.27;91.05;100143.59;4885177;29;20914;-94
2023/03/23 06:15:36;;;;;;;11.07;3.40;;;;;;;11.27;91.09;100156.66;4887019;29;20391;-94
2023/03/23 06:18:02;;;;;;;9.90;3.08;;;;;;;11.26;90.92;100167.94;4889298;29;20043;-94
2023/03/23 06:20:30;;;;;;;10.38;2.67;;;;;;;11.27;90.47;100182.72;4895496;29;20032;-94
2023/03/23 06:22:56;;;;;;;13.60;3.60;;;;;;;11.28;90.81;100181.88;4883992;29;20586;-94
2023/03/23 06:25:22;;;;;;;9.57;3.13;;;;;;;11.31;90.40;100178.41;4896335;29;20111;-94
2023/03/23 06:27:51;;;;;;;12.02;3.08;;;;;;;11.33;89.88;100178.44;4884390;29;20116;-93
2023/03/23 06:30:20;;;;;;;13.40;3.42;;;;;;;11.35;89.68;100193.22;4895973;29;20474;-94
2023/03/23 06:32:51;;;;;;;10.40;3.08;;;;;;;11.38;89.17;100192.38;4896586;29;20051;-94
2023/03/23 06:35:17;;;;;;;9.32;2.90;;;;;;;11.38;89.23;100203.69;4896816;29;20124;-94
2023/03/23 06:37:45;;;;;;;12.82;3.30;;;;;;;11.44;88.05;100201.16;4888109;29;20036;-93
2023/03/23 06:40:10;;;;;;;11.07;3.03;;;;;;;11.44;87.85;100200.25;4883892;29;20028;-93
2023/03/23 06:42:36;;;;;;;8.20;2.65;;;;;;;11.45;88.26;100202.88;4884069;29;20096;-93
2023/03/23 06:45:03;;;;;;;7.50;2.50;;;;;;;11.46;88.37;100203.78;4884808;29;20029;-92
2023/03/23 06:47:39;;;;;;;9.13;3.05;;;;;;;11.47;88.22;100221.16;4896109;29;20059;-94
2023/03/23 06:50:07;;;;;;;14.05;2.72;;;;;;;11.44;88.94;100213.31;4884993;29;20037;-93
2023/03/23 06:52:35;;;;;;;11.13;2.42;;;;;;;11.43;89.72;100217.66;4884017;29;20053;-94
2023/03/23 06:55:01;;;;;;;11.88;2.55;;;;;;;11.41;89.45;100221.09;4898785;29;20025;-94
2023/03/23 06:57:26;;;;;;;11.25;2.90;;;;;;;11.39;89.88;100228.91;4882837;29;20083;-92
2023/03/23 06:59:52;;;;;;;8.00;2.58;;;;;;;11.40;88.87;100240.25;4897072;29;20025;-92
2023/03/23 07:02:19;;;;;;;12.75;2.63;;;;;;;11.37;89.59;100238.47;4886201;29;20491;-94
2023/03/23 07:04:45;;;;;;;10.43;2.40;;;;;;;11.35;89.13;100240.19;4881349;29;20029;-93
2023/03/23 07:07:14;;;;;;;10.13;2.40;;;;;;;11.36;90.40;100235.84;4886756;29;20084;-94
2023/03/23 07:09:50;;;;;;;10.85;3.13;;;;;;;11.31;91.19;100236.69;4884199;29;20032;-93
2023/03/23 07:12:21;;;;;;;10.38;2.90;;;;;;;11.25;91.80;100238.31;4885094;29;20040;-94
2023/03/23 07:14:49;;;;;;;11.60;2.90;;;;;;;11.22;92.27;100251.34;4895602;29;20032;-93
2023/03/23 07:17:14;;;;;;;9.68;2.35;;;;;;;11.14;94.09;100256.47;4895136;29;20162;-93
2023/03/23 07:19:43;;;;;;;11.65;3.08;;;;;;;11.08;94.94;100269.41;4884644;29;20270;-94
2023/03/23 07:22:16;;;;;;;11.68;3.25;;;;;;;10.98;96.09;100267.56;4895998;29;20107;-94
2023/03/23 07:24:44;;;;;;;8.68;2.30;;;;;;;10.86;94.54;100268.28;4886128;29;20029;-94
2023/03/23 07:27:10;;;;;;;11.05;3.05;;;;;;;10.75;98.25;100273.38;4886409;29;20032;-94
2023/03/23 07:29:38;;;;;;;13.38;3.40;;;;;;;10.67;99.80;100264.56;4884558;29;20612;-93
2023/03/23 07:32:13;;;;;;;10.57;2.90;;;;;;;10.63;100.00;100291.41;4885749;29;20482;-93
2023/03/23 07:34:39;;;;;;;10.43;3.10;;;;;;;10.58;100.00;100305.25;4894578;29;20033;-94
2023/03/23 07:37:10;;;;;;;9.45;3.15;;;;;;;10.50;100.00;100312.09;4885091;29;20107;-93
2023/03/23 07:39:36;;;;;;;8.45;1.88;;;;;;;10.34;96.08;100303.16;4883518;29;20029;-94
2023/03/23 07:42:02;;;;;;;6.80;1.38;;;;;;;10.16;93.66;100297.63;4884487;29;20036;-94
2023/03/23 07:44:27;;;;;;;6.20;1.33;;;;;;;9.97;94.84;100278.22;4884298;29;20025;-92
2023/03/23 07:46:55;;;;;;;5.82;1.25;;;;;;;9.88;95.03;100279.81;4884066;29;20028;-93
2023/03/23 07:49:21;;;;;;;5.35;1.40;;;;;;;9.82;94.58;100273.63;4881839;29;20115;-93
2023/03/23 07:51:46;;;;;;;5.60;1.30;;;;;;;9.77;94.76;100281.34;4883595;29;20128;-93
2023/03/23 07:54:18;;;;;;;5.18;1.40;;;;;;;9.77;95.60;100286.53;4894432;29;20032;-93
2023/03/23 07:56:47;;;;;;;5.30;1.38;;;;;;;9.77;97.34;100283.06;4884081;29;20028;-95
2023/03/23 07:59:12;;;;;;;6.37;1.50;;;;;;;9.82;97.84;100294.44;4896385;29;20037;-95
2023/03/23 08:01:39;;;;;;;5.68;1.70;;;;;;;9.81;98.52;100303.97;4886181;29;20509;-94
2023/03/23 08:04:08;;;;;;;5.18;1.60;;;;;;;9.84;99.36;100303.16;4895866;29;20039;-95
2023/03/23 08:06:39;;;;;;;5.35;1.60;;;;;;;9.86;98.72;100317.97;4882825;29;20032;-95
2023/03/23 08:09:07;;;;;;;6.28;1.50;;;;;;;9.86;98.83;100304.94;4887943;29;20035;-96
2023/03/23 08:11:35;;;;;;;6.57;1.55;;;;;;;9.87;98.54;100314.47;4880541;29;20041;-95
2023/03/23 08:14:03;;;;;;;5.18;1.75;;;;;;;9.87;98.65;100324.03;4887020;29;20037;-96
2023/03/23 08:16:41;;;;;;;;;;;;;;;;;;;;;
2023/03/23 08:19:14;;;;;;;6.07;1.55;;;;;;;9.87;97.77;100332.69;4920553;23;20064;-67
2023/03/23 08:21:40;;;;;;;7.50;1.55;;;;;;;9.88;98.67;100324.03;4910131;29;20075;-67
2023/03/23 08:24:06;;;;;;;5.05;1.23;;;;;;;9.89;97.86;100323.22;4899682;29;20024;-67
2023/03/23 08:26:31;;;;;;;4.75;1.40;;;;;;;9.91;97.90;100334.50;4909690;29;20032;-67
2023/03/23 08:28:57;;;;;;;4.10;1.15;;;;;;;9.92;97.57;100332.78;4910345;29;20024;-67
2023/03/23 08:31:23;;;;;;;8.18;1.33;;;;;;;9.90;97.92;100330.16;4899435;29;20035;-67
2023/03/23 08:33:48;;;;;;;7.35;1.30;;;;;;;9.87;98.13;100322.28;4910222;29;20093;-67
2023/03/23 08:36:14;;;;;;;5.03;1.08;;;;;;;9.87;97.92;100322.28;4910713;29;20028;-67
2023/03/23 08:38:39;;;;;;;4.78;1.25;;;;;;;9.88;98.39;100324.03;4910717;29;20028;-67
2023/03/23 08:41:05;;;;;;;6.47;1.45;;;;;;;9.89;97.85;100320.59;4909644;29;20055;-67
2023/03/23 08:43:34;;;;;;;8.25;1.30;;;;;;;9.90;97.23;100324.06;4909927;29;20062;-67
2023/03/23 08:46:06;;;;;;;5.43;1.30;;;;;;;9.95;96.71;100329.34;4910623;29;20563;-67
2023/03/23 08:48:33;;;;;;;3.30;1.17;;;;;;;9.96;96.44;100318.09;4910438;29;20024;-67
2023/03/23 08:50:58;;;;;;;6.97;1.70;;;;;;;9.97;97.56;100325.94;4909488;29;20028;-67
2023/03/23 08:53:24;;;;;;;10.05;2.92;;;;;;;10.01;97.70;100326.88;4908764;29;20031;-67
2023/03/23 08:55:49;;;;;;;10.02;3.00;;;;;;;10.01;97.74;100329.47;4910373;29;20030;-67
2023/03/23 08:58:15;;;;;;;8.70;2.00;;;;;;;10.03;98.31;100335.59;4898917;29;20043;-67
2023/03/23 09:00:40;;;;;;;6.88;1.38;;;;;;;10.07;98.09;100334.78;4926694;23;20088;-67
2023/03/23 09:03:09;;;;;;;5.88;1.80;;;;;;;10.06;98.39;100328.69;4934055;23;20598;-94
2023/03/23 09:05:45;;;;;;;;;;;;;;;;;;;;;
2023/03/23 09:08:14;;;;;;;5.43;1.40;;;;;;;10.07;97.49;100345.19;4909816;29;20044;-95
2023/03/23 09:10:42;;;;;;;6.57;1.53;;;;;;;10.07;98.92;100326.97;4900975;29;20487;-95
2023/03/23 09:13:10;;;;;;;7.93;1.60;;;;;;;10.09;99.59;100314.84;4898183;29;20039;-95
2023/03/23 09:15:36;;;;;;;6.80;1.70;;;;;;;10.18;99.87;100312.44;4904525;29;20028;-95
2023/03/23 09:18:03;;;;;;;8.00;1.80;;;;;;;10.31;99.96;100316.09;4902427;29;20620;-95
2023/03/23 09:20:29;;;;;;;5.80;1.50;;;;;;;10.41;99.37;100328.44;4904524;29;20111;-95
2023/03/23 09:22:56;;;;;;;7.85;1.52;;;;;;;10.46;97.83;100331.13;4901553;29;20102;-94
2023/03/23 09:25:25;;;;;;;5.82;1.73;;;;;;;10.47;97.56;100350.22;4900227;29;20032;-94
2023/03/23 09:27:56;;;;;;;6.57;1.67;;;;;;;10.44;97.30;100348.44;4901590;29;20040;-95
2023/03/23 09:30:24;;;;;;;8.60;1.52;;;;;;;10.42;97.24;100339.75;4901009;29;20024;-94
2023/03/23 09:32:49;;;;;;;6.82;1.48;;;;;;;10.41;97.08;100333.66;4902220;29;20124;-95
2023/03/23 09:35:27;;;;;;;9.25;1.48;;;;;;;10.42;97.20;100335.38;4902546;29;20865;-94
2023/03/23 09:37:55;;;;;;;4.50;1.60;;;;;;;10.44;96.98;100341.53;4909559;29;20031;-91
2023/03/23 09:40:23;;;;;;;5.82;1.60;;;;;;;10.50;97.67;100345.06;4910564;29;20047;-92
2023/03/23 09:43:01;;;;;;;7.07;1.83;;;;;;;10.65;98.47;100347.03;4910177;29;20106;-92
2023/03/23 09:45:54;;;;;;;4.93;1.70;;;;;;;10.85;97.39;100345.59;4899256;29;20043;-92
2023/03/23 09:48:38;;;;;;;5.65;1.63;;;;;;;10.94;96.47;100350.94;4898016;29;20394;-92
2023/03/23 09:51:32;;;;;;;5.60;1.45;;;;;;;11.08;95.77;100350.25;4909540;29;20040;-92
2023/03/23 09:54:09;;;;;;;5.97;2.03;;;;;;;11.29;97.82;100345.31;4910389;29;20094;-92
2023/03/23 09:56:36;;;;;;;7.63;1.67;;;;;;;11.55;94.06;100346.50;4897705;29;20123;-92
2023/03/23 09:59:12;;;;;;;6.78;1.75;;;;;;;11.73;96.01;100343.19;4910115;29;20043;-92
2023/03/23 10:01:46;;;;;;;7.97;1.58;;;;;;;11.97;93.68;100350.44;4898502;29;20521;-93
2023/03/23 10:04:31;;;;;;;9.00;2.10;;;;;;;12.12;91.84;100344.50;4910820;29;20040;-93
2023/03/23 10:07:10;;;;;;;8.63;1.85;;;;;;;12.24;91.04;100339.38;4901231;29;20050;-93
2023/03/23 10:09:37;;;;;;;7.80;1.80;;;;;;;12.35;90.86;100345.59;4901917;29;20060;-93
2023/03/23 10:12:12;;;;;;;7.30;2.17;;;;;;;12.55;91.22;100350.06;4903074;29;20028;-93
2023/03/23 10:14:50;;;;;;;5.55;2.13;;;;;;;12.76;88.52;100345.84;4914241;29;20040;-93
2023/03/23 10:17:28;;;;;;;7.43;2.10;;;;;;;12.93;89.34;100354.69;4901973;29;20042;-94
2023/03/23 10:20:28;;;;;;;6.85;1.73;;;;;;;13.10;88.28;100352.16;4902575;29;20036;-94
2023/03/23 10:23:18;;;;;;;8.48;2.28;;;;;;;13.18;86.33;100360.06;4901239;29;20072;-93
2023/03/23 10:26:21;;;;;;;7.75;2.20;;;;;;;13.36;87.33;100369.78;4914478;29;20036;-94
2023/03/23 10:29:10;;;;;;;7.93;2.22;;;;;;;13.38;85.27;100368.91;4874489;29;20044;-92
2023/03/23 10:31:41;;;;;;;6.78;2.60;;;;;;;13.38;85.65;100374.16;4918621;29;20024;-92
2023/03/23 10:34:15;;;;;;;7.07;2.80;;;;;;;13.43;85.59;100371.56;4901239;29;20114;-93
2023/03/23 10:37:11;;;;;;;9.75;2.53;;;;;;;13.42;84.43;100377.66;4903211;29;20043;-94
2023/03/23 10:39:52;;;;;;;8.95;2.78;;;;;;;13.31;84.87;100367.13;4902476;29;20071;-94
2023/03/23 10:42:24;;;;;;;11.75;3.20;;;;;;;13.28;84.37;100377.56;4913444;29;20099;-91
2023/03/23 10:44:50;;;;;;;10.55;2.58;;;;;;;13.35;83.57;100371.53;4913954;29;20024;-94
2023/03/23 10:47:17;;;;;;;12.48;2.88;;;;;;;13.50;84.94;100375.09;4899688;29;20079;-92
2023/03/23 10:50:05;;;;;;;8.20;3.05;;;;;;;13.61;83.60;100370.72;4896655;29;20023;-93
2023/03/23 10:52:39;;;;;;;9.32;2.67;;;;;;;13.60;83.20;100376.84;4898263;29;20434;-93
2023/03/23 10:55:14;;;;;;;10.20;2.88;;;;;;;13.60;82.23;100365.50;4910071;29;20068;-93
2023/03/23 10:57:45;;;;;;;7.03;2.85;;;;;;;13.74;84.57;100366.41;4898754;29;20497;-93
2023/03/23 11:00:13;;;;;;;9.43;2.78;;;;;;;13.93;82.46;100367.31;4899953;29;20024;-92
2023/03/23 11:02:47;;;;;;;7.63;2.40;;;;;;;14.07;84.25;100360.38;4885057;29;20074;-93
2023/03/23 11:05:22;;;;;;;8.68;2.55;;;;;;;14.25;84.18;100370.00;4891836;29;20037;-93
2023/03/23 11:07:56;;;;;;;9.52;2.75;;;;;;;14.35;81.31;100367.38;4879915;29;20024;-93
2023/03/23 11:10:28;;;;;;;8.40;2.67;;;;;;;14.31;79.00;100363.91;4879911;29;20036;-93
2023/03/23 11:12:58;;;;;;;7.50;2.70;;;;;;;14.30;78.32;100372.63;4891061;29;20063;-93
2023/03/23 11:15:30;;;;;;;6.28;2.38;;;;;;;14.30;78.37;100359.53;4881314;29;20108;-92
2023/03/23 11:18:04;;;;;;;10.60;2.80;;;;;;;14.35;78.52;100365.66;4880832;29;20043;-92
2023/03/23 11:20:35;;;;;;;9.88;2.58;;;;;;;14.46;76.98;100360.41;4875093;29;20080;-92
2023/03/23 11:23:07;;;;;;;7.93;2.50;;;;;;;14.51;78.30;100360.41;4880967;29;20108;-92
2023/03/23 11:25:33;;;;;;;14.10;2.53;;;;;;;14.40;75.91;100369.13;4880724;29;20096;-92
2023/03/23 11:28:00;;;;;;;8.85;1.90;;;;;;;14.14;74.51;100374.38;4882509;29;20498;-92
2023/03/23 11:30:29;;;;;;;8.88;2.05;;;;;;;13.96;76.11;100366.47;4892154;29;20036;-92
2023/03/23 11:33:00;;;;;;;10.98;2.10;;;;;;;13.86;76.75;100382.19;4881525;29;20046;-92
2023/03/23 11:35:28;;;;;;;9.15;2.33;;;;;;;13.81;75.93;100372.56;4891154;29;20025;-92
2023/03/23 11:37:56;;;;;;;9.05;2.38;;;;;;;13.81;76.00;100380.41;4891465;29;20042;-92
2023/03/23 11:40:27;;;;;;;8.20;2.10;;;;;;;13.79;77.16;100385.66;4891776;29;20115;-92
2023/03/23 11:42:53;;;;;;;6.47;2.08;;;;;;;13.74;75.97;100385.63;4881482;29;20450;-92
2023/03/23 11:45:20;;;;;;;9.13;2.00;;;;;;;13.65;76.62;100387.34;4880258;29;20032;-92